• Join FlightAware (Why Join?)
  • Login
  • US Flag 
02:08AM EST


 

Airport Tracker/Info


-or-


 

Live Flight TrackerFlight Track Log ✈ RPA3497 ✈ 26-Jan-2014 ✈ KBGR - KDCA

Flight Track Log - Related Links

Times and Time Zones

All times are in EST time to prevent confusion due to time zone crossing. See the RPA3497 flight status page for this flight to view local times or setup timezone preferences in your user account.

Time Position Orientation Groundspeed Altitude Reporting Facility
EST Latitude Longitude Course Direction KTS MPH feet Rate Location/Type
12:51PM 44.8369 -68.8844 222° Southwest 166 191 3,200  Level Boston Center
12:52PM 44.6000 -69.0886 270° West  Level FlightAware Approximate
12:52PM 44.7942 -68.9469 226° Southwest 219 252 6,600  Level Boston Center
12:53PM 44.5344 -69.1766 220° Southwest  Level FlightAware Approximate
12:53PM 44.7472 -69.0056 222° Southwest 223 257 9,900  Level Boston Center
12:54PM 44.4659 -69.2655 226° Southwest  Level FlightAware Approximate
12:54PM 44.6928 -69.0739 222° Southwest 247 284 12,200  Level Boston Center
12:55PM 44.4004 -69.3590 226° Southwest  Level FlightAware Approximate
12:55PM 44.6311 -69.1517 222° Southwest 285 328 15,400  Level Boston Center
12:56PM 44.3368 -69.4417 222° Southwest  Level FlightAware Approximate
12:56PM 44.5664 -69.2311 221° Southwest 302 348 18,600  Level Boston Center
12:57PM 44.5008 -69.3144 222° Southwest 312 359 21,200 2,460 Climbing Boston Center
12:58PM 44.4369 -69.4044 225° Southwest 318 366 23,700 2,400 Climbing Boston Center
12:59PM 44.3733 -69.4953 226° Southwest 318 366 26,100 2,040 Climbing Boston Center
01:00PM 44.3075 -69.5881 225° Southwest 330 380 28,000 1,560 Climbing Boston Center
01:01PM 44.2411 -69.6831 226° Southwest 337 388 29,400 960 Climbing Boston Center
01:02PM 44.1711 -69.7808 225° Southwest 349 402 30,000 240 Climbing Boston Center
01:03PM 44.0972 -69.8858 226° Southwest 374 430 30,000  Level Boston Center
01:04PM 44.0242 -69.9858 225° Southwest 372 428 30,000  Level Boston Center
01:05PM 43.9533 -70.0889 226° Southwest 369 425 30,000  Level Boston Center
01:06PM 43.8794 -70.1911 225° Southwest 373 429 30,000  Level Boston Center
01:07PM 43.8047 -70.2942 225° Southwest 375 432 30,000  Level Boston Center
01:08PM 43.7167 -70.4106 224° Southwest 363 418 30,000 240 Level Boston Center
01:09PM 43.6450 -70.5131 226° Southwest 363 418 30,600 720 Climbing Boston Center
01:10PM 43.5744 -70.6097 225° Southwest 357 411 31,600 660 Climbing Boston Center
01:11PM 43.5039 -70.7069 225° Southwest 355 409 32,000 180 Climbing Boston Center
01:12PM 43.4308 -70.8044 224° Southwest 363 418 32,000  Level Boston Center
01:13PM 43.3608 -70.8969 224° Southwest 361 415 32,000  Level Boston Center
01:14PM 43.2897 -70.9939 225° Southwest 361 415 32,000  Level Boston Center
01:15PM 43.2211 -71.0869 225° Southwest 356 410 32,000  Level Boston Center
01:16PM 43.1525 -71.1781 224° Southwest 352 405 32,000  Level Boston Center
01:17PM 43.0819 -71.2733 225° Southwest 354 407 32,000  Level Boston Center
01:18PM 43.0128 -71.3653 224° Southwest 351 404 32,000  Level Boston Center
01:19PM 42.9303 -71.4750 224° Southwest 347 399 32,000  Level Boston Center
01:20PM 42.8761 -71.5483 225° Southwest 347 399 32,000  Level Boston Center
01:21PM 42.7933 -71.6586 224° Southwest 345 397 32,000  Level Boston Center
01:22PM 42.7256 -71.7467 224° Southwest 336 387 32,000  Level Boston Center
01:23PM 42.6586 -71.8336 224° Southwest 332 382 32,000  Level Boston Center
01:24PM 42.5936 -71.9208 225° Southwest 328 377 32,000 -360 Level Boston Center
01:25PM 42.5278 -72.0053 223° Southwest 325 374 31,300 -840 Descending Boston Center
01:26PM 42.4617 -72.0906 224° Southwest 325 374 30,300 -1,020 Descending Boston Center
01:27PM 42.3947 -72.1775 224° Southwest 329 379 29,300 -1,020 Descending Boston Center
01:28PM 42.3281 -72.2647 224° Southwest 331 381 28,300 -660 Descending Boston Center
01:29PM 42.2617 -72.3503 224° Southwest 330 380 28,000 -180 Descending Boston Center
01:30PM 42.1942 -72.4364 223° Southwest 330 380 28,000  Level Boston Center
01:31PM 42.1281 -72.5208 223° Southwest 329 379 28,000  Level Boston Center
01:32PM 42.0625 -72.6047 224° Southwest 327 376 28,000  Level Boston Center
01:34PM 41.9828 -72.7061 223° Southwest 327 376 28,000  Level Boston Center
01:35PM 41.9175 -72.7892 223° Southwest 326 375 28,000  Level Boston Center
01:36PM 41.8514 -72.8722 223° Southwest 326 375 28,000  Level Boston Center
01:37PM 41.7861 -72.9531 223° Southwest 324 373 28,000  Level Boston Center
01:38PM 41.7211 -73.0356 223° Southwest 322 371 28,000  Level Boston Center
01:39PM 41.6558 -73.1186 224° Southwest 322 371 28,000  Level Boston Center
01:40PM 41.5911 -73.2003 223° Southwest 322 371 28,000  Level Boston Center
01:41PM 41.5206 -73.2861 222° Southwest 321 369 28,000  Level Boston Center
01:42PM 41.4553 -73.3683 223° Southwest 322 371 28,000  Level Boston Center
01:43PM 41.3889 -73.4475 222° Southwest 322 371 28,000  Level Boston Center
01:44PM 41.3242 -73.5294 224° Southwest 323 372 28,000  Level Boston Center
01:45PM 41.2617 -73.6136 225° Southwest 323 372 28,000  Level Boston Center
01:46PM 41.2086 -73.7042 232° Southwest 316 364 28,100  Climbing Boston Center
01:46PM 41.1756 -73.7675 235° Southwest 321 369 28,000 -120 Descending New York Center
01:47PM 41.1214 -73.8558 231° Southwest 321 369 28,000  Level New York Center
01:48PM 41.0669 -73.9469 232° Southwest 321 369 28,000  Level New York Center
01:49PM 41.0122 -74.0353 231° Southwest 316 364 28,000  Level New York Center
01:50PM 40.9597 -74.1261 233° Southwest 316 364 28,000  Level New York Center
01:51PM 40.8944 -74.2272 230° Southwest 322 371 28,000  Level New York Center
01:52PM 40.8417 -74.3178 232° Southwest 322 371 28,000  Level New York Center
01:53PM 40.7847 -74.4081 230° Southwest 322 371 28,000  Level New York Center
01:54PM 40.7319 -74.4981 232° Southwest 322 371 28,000  Level New York Center
01:55PM 40.6769 -74.5908 232° Southwest 322 371 28,000  Level New York Center
01:56PM 40.6219 -74.6808 231° Southwest 322 371 28,000  Level New York Center
01:57PM 40.5625 -74.7731 230° Southwest 322 371 28,000 -240 Level New York Center
01:58PM 40.5011 -74.8597 227° Southwest 322 371 27,600 -720 Descending New York Center
01:59PM 40.4419 -74.9461 228° Southwest 322 371 26,600 -1,020 Descending New York Center
02:00PM 40.3806 -75.0294 226° Southwest 322 371 25,600 -1,020 Descending New York Center
02:01PM 40.3192 -75.1128 226° Southwest 322 371 24,600 -1,020 Descending New York Center
02:02PM 40.2617 -75.1989 229° Southwest 322 371 23,600 -1,020 Descending New York Center
02:03PM 40.2047 -75.2769 226° Southwest 322 371 22,600 -840 Descending New York Center
02:04PM 40.1517 -75.3522 227° Southwest 307 353 22,000 -300 Descending New York Center
02:05PM 40.0967 -75.4300 227° Southwest 302 348 22,000 -60 Level New York Center
02:06PM 40.0414 -75.5075 227° Southwest 302 348 21,900 -480 Descending New York Center
02:07PM 39.9883 -75.5800 226° Southwest 302 348 21,100 -1,200 Descending New York Center
02:08PM 39.9414 -75.6581 232° Southwest 296 341 19,600 -1,560 Descending New York Center
02:09PM 39.8881 -75.7381 229° Southwest 291 335 18,000 -1,320 Descending New York Center
02:10PM 39.8433 -75.8081 230° Southwest 277 319 17,000 -540 Descending New York Center
02:11PM 39.7986 -75.8778 230° Southwest 266 306 17,000 -300 Level New York Center
02:12PM 39.7581 -75.9450 232° Southwest 266 306 16,500 -2,520 Descending New York Center
02:13PM 39.7044 -76.0275 230° Southwest 266 306 12,000 -1,080 Descending New York Center
02:14PM 39.6575 -76.0967 229° Southwest 273 314 14,400 660 Climbing New York Center
02:15PM 39.6103 -76.1739 232° Southwest 273 314 13,400 -1,080 Descending New York Center
02:16PM 39.5653 -76.2458 231° Southwest 267 307 12,300 -660 Descending New York Center
02:18PM 39.5000 -76.3333 226° Southwest 284 327 11,900 -180 Descending Potomac TRACON
02:19PM 39.4500 -76.4167 232° Southwest 280 322 12,000  Climbing Potomac TRACON
02:20PM 39.3833 -76.4833 218° Southwest 284 327 12,000  Level Potomac TRACON
02:21PM 39.3167 -76.5333 210° Southwest 303 349 12,000 -300 Level Potomac TRACON
02:22PM 39.2500 -76.6000 218° Southwest 304 350 11,500 -1,020 Descending Potomac TRACON
02:23PM 39.1667 -76.6667 212° Southwest 306 352 10,000 -780 Descending Potomac TRACON
02:24PM 39.1333 -76.7500 243° Southwest 288 331 10,000  Level Potomac TRACON
02:25PM 39.1167 -76.8500 258° West 239 275 10,000 -1,080 Level Potomac TRACON
02:26PM 39.0833 -76.9167 237° Southwest 208 239 7,900 -2,340 Descending Potomac TRACON
02:27PM 39.0667 -76.9833 252° West 199 229 5,400 -1,500 Descending Potomac TRACON
02:28PM 39.0500 -77.0500 252° West 214 246 4,900 -600 Descending Potomac TRACON
02:29PM 39.0333 -77.1167 252° West 161 185 4,300 -960 Descending Potomac TRACON
02:30PM 39.0167 -77.1500 237° Southwest 162 186 3,000 -900 Descending Potomac TRACON
02:31PM 38.9667 -77.1333 165° South 153 176 2,500 -540 Descending Potomac TRACON
02:32PM 38.9333 -77.1167 159° South 161 185 1,900 -660 Descending Potomac TRACON
02:33PM 38.9000 -77.0833 142° Southeast 142 163 1,200 -780 Descending Potomac TRACON
02:34PM 38.8833 -77.0500 123° Southeast 126 145 500 -720 Descending Potomac TRACON